Time;durP1;ratioP1;P1;durP2;ratioP2;P2;SDS_P1;SDS_P2;PMS_P1;PMS_P2;Temp;Humidity;BMP_temperature;BMP_pressure;BME280_temperature;BME280_humidity;BME280_pressure;Samples;Min_cycle;Max_cycle;Signal;HPM_P1;HPM_P2
2023/12/30 00:01:58;;;;;;;10.95;0.57;;;9.60;99.90;;;;;;4823770;29;20451;-66
2023/12/30 00:04:24;;;;;;;1.50;0.63;;;9.70;99.90;;;;;;4823402;29;20046;-67
2023/12/30 00:06:51;;;;;;;1.02;0.70;;;9.60;99.90;;;;;;4823845;29;20518;-66
2023/12/30 00:09:17;;;;;;;0.38;0.35;;;9.60;99.90;;;;;;4823200;29;20100;-66
2023/12/30 00:11:42;;;;;;;3.38;0.52;;;9.60;99.90;;;;;;4823769;29;20462;-66
2023/12/30 00:14:08;;;;;;;0.75;0.40;;;9.70;99.90;;;;;;4823530;29;20451;-66
2023/12/30 00:16:34;;;;;;;2.92;0.57;;;9.60;99.90;;;;;;4823695;29;20491;-66
2023/12/30 00:19:00;;;;;;;1.40;0.65;;;9.70;99.90;;;;;;4823053;29;20497;-66
2023/12/30 00:21:25;;;;;;;6.57;0.57;;;9.60;99.90;;;;;;4807272;29;20379;-66
2023/12/30 00:23:51;;;;;;;3.50;0.88;;;9.60;99.90;;;;;;4823215;29;20030;-66
2023/12/30 00:26:25;;;;;;;1.13;0.77;;;9.60;99.90;;;;;;4824019;29;20031;-66
2023/12/30 00:28:52;;;;;;;4.70;0.70;;;9.50;99.90;;;;;;4823039;29;20038;-66
2023/12/30 00:31:27;;;;;;;1.08;0.75;;;9.50;99.90;;;;;;4806938;29;20121;-66
2023/12/30 00:33:56;;;;;;;3.97;0.80;;;9.50;99.90;;;;;;4822918;29;20045;-66
2023/12/30 00:36:22;;;;;;;2.97;0.65;;;9.60;99.90;;;;;;4823055;29;20495;-66
2023/12/30 00:38:47;;;;;;;3.35;0.52;;;9.60;99.90;;;;;;4822324;29;20146;-66
2023/12/30 00:41:13;;;;;;;2.28;0.80;;;9.60;99.90;;;;;;4823789;29;20509;-66
2023/12/30 00:43:43;;;;;;;3.38;0.80;;;9.70;99.90;;;;;;4822679;29;20030;-66
2023/12/30 00:46:09;;;;;;;1.17;0.63;;;9.70;99.90;;;;;;4806548;29;20042;-66
2023/12/30 00:48:35;;;;;;;1.75;0.60;;;9.60;99.90;;;;;;4805649;29;20431;-66
2023/12/30 00:51:02;;;;;;;0.65;0.60;;;9.60;99.90;;;;;;4806708;29;20049;-66
2023/12/30 00:53:29;;;;;;;0.68;0.40;;;9.70;99.90;;;;;;4822490;29;20034;-66
2023/12/30 00:55:56;;;;;;;0.20;0.20;;;9.70;99.90;;;;;;4806245;29;20030;-66
2023/12/30 00:58:22;;;;;;;0.65;0.50;;;9.80;99.90;;;;;;4805852;29;20030;-67
2023/12/30 01:00:50;;;;;;;1.17;0.77;;;9.80;99.90;;;;;;4806866;29;20036;-66
2023/12/30 01:03:16;;;;;;;1.17;0.65;;;9.90;99.90;;;;;;4822985;29;20437;-66
2023/12/30 01:05:43;;;;;;;0.28;0.28;;;10.00;99.90;;;;;;4806521;29;20045;-66
2023/12/30 01:08:08;;;;;;;4.22;0.43;;;10.10;99.90;;;;;;4822954;29;20040;-66
2023/12/30 01:10:34;;;;;;;1.55;0.22;;;10.10;99.90;;;;;;4822710;29;20467;-66
2023/12/30 01:13:00;;;;;;;0.75;0.45;;;10.20;99.90;;;;;;4822920;29;20030;-66
2023/12/30 01:15:26;;;;;;;0.45;0.35;;;10.20;99.90;;;;;;4822312;29;20459;-66
2023/12/30 01:17:51;;;;;;;5.25;0.52;;;10.20;99.90;;;;;;4822867;29;20467;-66
2023/12/30 01:20:17;;;;;;;0.25;0.25;;;10.20;99.90;;;;;;4822544;29;20061;-66
2023/12/30 01:22:43;;;;;;;0.60;0.20;;;10.30;99.90;;;;;;4822776;29;20022;-66
2023/12/30 01:25:09;;;;;;;0.60;0.47;;;10.30;99.90;;;;;;4822324;29;20038;-66
2023/12/30 01:27:34;;;;;;;0.55;0.40;;;10.20;99.90;;;;;;4822570;29;20121;-66
2023/12/30 01:30:00;;;;;;;1.08;0.30;;;10.20;99.90;;;;;;4822466;29;20038;-66
2023/12/30 01:32:26;;;;;;;0.95;0.28;;;10.20;99.90;;;;;;4823007;29;20042;-66
2023/12/30 01:34:52;;;;;;;1.65;0.30;;;10.20;99.90;;;;;;4822426;29;20038;-66
2023/12/30 01:37:18;;;;;;;2.88;0.20;;;10.30;99.90;;;;;;4822428;29;20554;-66
2023/12/30 01:39:44;;;;;;;0.75;0.30;;;10.20;99.90;;;;;;4822182;29;20034;-66
2023/12/30 01:42:11;;;;;;;3.70;0.60;;;10.20;99.90;;;;;;4822913;29;20034;-66
2023/12/30 01:44:36;;;;;;;0.82;0.50;;;10.20;99.90;;;;;;4805976;29;20113;-66
2023/12/30 01:47:02;;;;;;;1.52;0.47;;;10.10;99.90;;;;;;4822755;29;20126;-66
2023/12/30 01:49:28;;;;;;;0.77;0.50;;;10.10;99.90;;;;;;4807666;29;20509;-68
2023/12/30 01:51:54;;;;;;;2.00;0.45;;;10.10;99.90;;;;;;4826337;29;20042;-66
2023/12/30 01:54:21;;;;;;;0.28;0.28;;;10.00;99.90;;;;;;4809599;29;20034;-66
2023/12/30 01:56:49;;;;;;;0.70;0.55;;;10.00;99.90;;;;;;4809774;29;20110;-66
2023/12/30 01:59:18;;;;;;;2.72;0.38;;;9.90;99.90;;;;;;4790675;29;20042;-65
2023/12/30 02:01:45;;;;;;;3.88;0.93;;;9.90;99.90;;;;;;4809512;29;20054;-66
2023/12/30 02:04:13;;;;;;;1.33;0.45;;;9.80;99.90;;;;;;4823413;29;20042;-65
2023/12/30 02:06:39;;;;;;;3.60;0.47;;;9.90;99.90;;;;;;4813155;29;20130;-65
2023/12/30 02:09:08;;;;;;;0.52;0.25;;;9.80;99.90;;;;;;4820995;29;20466;-65
2023/12/30 02:11:34;;;;;;;2.15;0.35;;;9.70;99.90;;;;;;4824591;29;20394;-66
2023/12/30 02:14:01;;;;;;;1.30;1.20;;;9.70;99.90;;;;;;4808841;29;20038;-66
2023/12/30 02:16:27;;;;;;;0.43;0.40;;;9.60;99.90;;;;;;4809278;29;20114;-66
2023/12/30 02:18:52;;;;;;;1.02;0.47;;;9.60;99.90;;;;;;4824957;29;20075;-66
2023/12/30 02:21:18;;;;;;;1.33;0.30;;;9.60;99.90;;;;;;4826411;29;20483;-66
2023/12/30 02:23:51;;;;;;;1.75;0.68;;;9.60;99.90;;;;;;4809552;29;20035;-66
2023/12/30 02:26:17;;;;;;;9.07;1.00;;;9.70;99.90;;;;;;4809899;29;20064;-66
2023/12/30 02:28:43;;;;;;;1.63;0.80;;;9.60;99.90;;;;;;4824459;29;20106;-66
2023/12/30 02:31:08;;;;;;;0.90;0.68;;;9.60;99.90;;;;;;4825695;29;20057;-66
2023/12/30 02:33:34;;;;;;;3.97;0.70;;;9.50;99.90;;;;;;4824812;29;20457;-66
2023/12/30 02:36:00;;;;;;;1.88;0.75;;;9.50;99.90;;;;;;4825401;29;20042;-66
2023/12/30 02:38:25;;;;;;;1.48;0.60;;;9.50;99.90;;;;;;4824689;29;20485;-66
2023/12/30 02:40:51;;;;;;;6.80;1.20;;;9.40;99.90;;;;;;4822817;29;20031;-66
2023/12/30 02:43:17;;;;;;;6.60;1.23;;;9.40;99.90;;;;;;4824728;29;20035;-66
2023/12/30 02:45:42;;;;;;;2.17;1.10;;;9.30;99.90;;;;;;4825031;29;20464;-66
2023/12/30 02:48:10;;;;;;;8.88;1.58;;;9.30;99.90;;;;;;4824416;29;20503;-66
2023/12/30 02:50:36;;;;;;;2.22;1.17;;;9.20;99.90;;;;;;4824671;29;20046;-66
2023/12/30 02:53:02;;;;;;;2.13;0.90;;;9.10;99.90;;;;;;4825021;29;20515;-66
2023/12/30 02:55:31;;;;;;;3.40;0.75;;;9.10;99.90;;;;;;4808243;29;20026;-66
2023/12/30 02:57:57;;;;;;;6.57;0.95;;;9.10;99.90;;;;;;4824529;29;20092;-66
2023/12/30 03:00:25;;;;;;;2.38;0.80;;;9.00;99.90;;;;;;4809132;29;20742;-66
2023/12/30 03:02:50;;;;;;;1.75;1.50;;;9.00;99.90;;;;;;4815635;29;20105;-66
2023/12/30 03:05:16;;;;;;;1.20;1.05;;;9.00;99.90;;;;;;4824429;29;20117;-66
2023/12/30 03:07:42;;;;;;;1.75;1.10;;;9.00;99.90;;;;;;4808491;29;20034;-66
2023/12/30 03:10:08;;;;;;;0.55;0.55;;;9.00;99.90;;;;;;4811349;29;20462;-66
2023/12/30 03:12:34;;;;;;;9.20;1.08;;;9.00;99.90;;;;;;4824535;29;20108;-66
2023/12/30 03:15:00;;;;;;;1.45;0.93;;;9.00;99.90;;;;;;4822905;29;20424;-66
2023/12/30 03:17:26;;;;;;;2.85;0.85;;;9.00;99.90;;;;;;4824332;29;20050;-66
2023/12/30 03:19:51;;;;;;;4.95;1.13;;;9.00;99.90;;;;;;4823886;29;20604;-66
2023/12/30 03:22:17;;;;;;;1.73;0.98;;;9.10;99.90;;;;;;4824579;29;20058;-66
2023/12/30 03:24:43;;;;;;;1.77;0.85;;;9.00;99.90;;;;;;4814997;29;20499;-66
2023/12/30 03:27:09;;;;;;;3.13;0.90;;;9.00;99.90;;;;;;4824599;29;20049;-66
2023/12/30 03:29:34;;;;;;;1.42;0.90;;;9.00;99.90;;;;;;4823798;29;20506;-66
2023/12/30 03:32:00;;;;;;;2.55;1.00;;;9.00;99.90;;;;;;4824400;29;20041;-66
2023/12/30 03:34:26;;;;;;;1.58;1.10;;;9.00;99.90;;;;;;4823723;29;20038;-66
2023/12/30 03:36:51;;;;;;;1.95;0.98;;;9.00;99.90;;;;;;4824288;29;20398;-66
2023/12/30 03:39:17;;;;;;;1.85;1.02;;;8.90;99.90;;;;;;4823644;29;20084;-66
2023/12/30 03:41:43;;;;;;;6.13;1.10;;;8.80;99.90;;;;;;4808380;29;20491;-66
2023/12/30 03:44:08;;;;;;;1.80;0.93;;;8.90;99.90;;;;;;4823528;29;20046;-66
2023/12/30 03:46:34;;;;;;;2.90;0.93;;;8.90;99.90;;;;;;4809190;29;20038;-66
2023/12/30 03:49:00;;;;;;;1.17;0.88;;;8.90;99.90;;;;;;4822854;29;20041;-67
2023/12/30 03:51:26;;;;;;;5.40;1.40;;;8.90;99.90;;;;;;4824085;29;20045;-67
2023/12/30 03:53:52;;;;;;;1.17;0.68;;;8.90;99.90;;;;;;4823671;29;20044;-67
2023/12/30 03:56:17;;;;;;;0.90;0.75;;;8.90;99.90;;;;;;4811019;29;20035;-67
2023/12/30 03:58:43;;;;;;;1.30;0.70;;;8.90;99.90;;;;;;4823072;29;20022;-66
2023/12/30 04:01:09;;;;;;;1.52;0.93;;;8.90;99.90;;;;;;4824481;29;20039;-67
2023/12/30 04:03:34;;;;;;;2.65;1.02;;;9.00;99.90;;;;;;4823680;29;20058;-67
2023/12/30 04:06:00;;;;;;;1.02;0.65;;;9.00;99.90;;;;;;4824631;29;20032;-66
2023/12/30 04:08:26;;;;;;;1.33;0.45;;;9.00;99.90;;;;;;4823909;29;20394;-66
2023/12/30 04:10:52;;;;;;;1.08;0.60;;;9.10;99.90;;;;;;4824425;29;20069;-67
2023/12/30 04:13:18;;;;;;;0.80;0.60;;;9.10;99.90;;;;;;4823670;29;20061;-67
2023/12/30 04:15:44;;;;;;;1.38;0.77;;;9.10;99.90;;;;;;4822521;29;20066;-67
2023/12/30 04:18:09;;;;;;;0.93;0.85;;;9.10;99.90;;;;;;4824261;29;20109;-67
2023/12/30 04:20:35;;;;;;;0.93;0.73;;;9.10;99.90;;;;;;4813684;29;20045;-67
2023/12/30 04:23:01;;;;;;;5.45;0.95;;;9.10;99.90;;;;;;4807771;29;20034;-67
2023/12/30 04:25:27;;;;;;;4.57;1.52;;;9.10;99.90;;;;;;4823218;29;20090;-67
2023/12/30 04:27:52;;;;;;;10.35;1.17;;;9.00;99.90;;;;;;4823836;29;20416;-67
2023/12/30 04:30:18;;;;;;;2.03;0.82;;;9.10;99.90;;;;;;4823597;29;20175;-67
2023/12/30 04:32:44;;;;;;;0.82;0.63;;;9.10;99.90;;;;;;4807352;29;20038;-67
2023/12/30 04:35:09;;;;;;;0.70;0.65;;;9.10;99.90;;;;;;4823024;29;20110;-67
2023/12/30 04:37:35;;;;;;;2.10;0.63;;;9.10;99.90;;;;;;4823249;29;20046;-67
2023/12/30 04:40:01;;;;;;;3.25;0.60;;;9.10;99.90;;;;;;4823331;29;20065;-67
2023/12/30 04:42:27;;;;;;;1.80;0.73;;;9.10;99.90;;;;;;4823894;29;20124;-67
2023/12/30 04:44:52;;;;;;;1.23;0.73;;;9.10;99.90;;;;;;4823431;29;20087;-67
2023/12/30 04:47:18;;;;;;;6.13;0.98;;;9.10;99.90;;;;;;4810851;29;20046;-67
2023/12/30 04:49:44;;;;;;;6.60;1.17;;;9.10;99.90;;;;;;4822617;29;20042;-67
2023/12/30 04:52:09;;;;;;;1.40;0.80;;;9.20;99.90;;;;;;4823301;29;20442;-67
2023/12/30 04:54:35;;;;;;;7.68;1.20;;;9.10;99.90;;;;;;4822937;29;20116;-67
2023/12/30 04:57:01;;;;;;;1.50;0.77;;;9.20;99.90;;;;;;4823668;29;20022;-67
2023/12/30 04:59:27;;;;;;;4.47;1.00;;;9.20;99.90;;;;;;4822742;29;20066;-67
2023/12/30 05:01:53;;;;;;;3.20;0.93;;;9.20;99.90;;;;;;4823739;29;20030;-67
2023/12/30 05:04:20;;;;;;;1.27;0.70;;;9.10;99.90;;;;;;4823003;29;20450;-67
2023/12/30 05:06:46;;;;;;;2.55;0.95;;;9.10;99.90;;;;;;4823316;29;20030;-67
2023/12/30 05:09:14;;;;;;;1.83;1.05;;;9.20;99.90;;;;;;4822213;29;20067;-67
2023/12/30 05:11:48;;;;;;;5.53;1.05;;;9.20;99.90;;;;;;4819901;29;20034;-67
2023/12/30 05:14:15;;;;;;;2.47;0.90;;;9.10;99.90;;;;;;4803614;29;20433;-67
2023/12/30 05:16:46;;;;;;;2.67;0.98;;;9.10;99.90;;;;;;4823506;29;20042;-67
2023/12/30 05:19:12;;;;;;;0.95;0.43;;;9.10;99.90;;;;;;4806749;29;20031;-68
2023/12/30 05:21:38;;;;;;;1.58;0.70;;;9.10;99.90;;;;;;4822933;29;20094;-67
2023/12/30 05:24:05;;;;;;;2.55;0.70;;;9.20;99.90;;;;;;4822256;29;20038;-66
2023/12/30 05:26:31;;;;;;;1.30;0.95;;;9.20;99.90;;;;;;4823450;29;20144;-67
2023/12/30 05:28:57;;;;;;;1.10;0.70;;;9.10;99.90;;;;;;4806178;29;20543;-67
2023/12/30 05:31:24;;;;;;;1.50;0.70;;;9.20;99.90;;;;;;4806928;29;20480;-67
2023/12/30 05:33:49;;;;;;;2.20;0.82;;;9.20;99.90;;;;;;4818228;29;20038;-66
2023/12/30 05:36:15;;;;;;;5.40;0.80;;;9.10;99.90;;;;;;4811395;29;20136;-66
2023/12/30 05:38:41;;;;;;;1.23;0.70;;;9.20;99.90;;;;;;4812817;29;20042;-68
2023/12/30 05:41:07;;;;;;;0.95;0.82;;;9.10;99.90;;;;;;4796762;29;20391;-67
2023/12/30 05:43:32;;;;;;;1.02;0.60;;;9.20;99.90;;;;;;4811840;29;20064;-67
2023/12/30 05:45:58;;;;;;;0.70;0.50;;;9.20;99.90;;;;;;4812742;29;20464;-67
2023/12/30 05:48:24;;;;;;;2.58;0.50;;;9.20;99.90;;;;;;4813184;29;20487;-68
2023/12/30 05:50:49;;;;;;;0.80;0.73;;;9.20;99.90;;;;;;4796698;29;20042;-66
2023/12/30 05:53:15;;;;;;;1.17;0.70;;;9.20;99.90;;;;;;4814419;29;20491;-66
2023/12/30 05:55:41;;;;;;;3.85;0.75;;;9.10;99.90;;;;;;4816903;29;20472;-67
2023/12/30 05:58:07;;;;;;;1.58;0.73;;;9.20;99.90;;;;;;4814870;29;20126;-67
2023/12/30 06:00:33;;;;;;;0.52;0.40;;;9.20;99.90;;;;;;4797781;29;20090;-66
2023/12/30 06:02:58;;;;;;;1.38;0.60;;;9.20;99.90;;;;;;4804254;29;20037;-66
2023/12/30 06:05:25;;;;;;;0.85;0.52;;;9.20;99.90;;;;;;4801554;29;20110;-66
2023/12/30 06:07:51;;;;;;;2.15;0.70;;;9.20;99.90;;;;;;4811778;29;20114;-66
2023/12/30 06:10:17;;;;;;;6.55;0.70;;;9.20;99.90;;;;;;4814239;29;20050;-67
2023/12/30 06:12:43;;;;;;;0.95;0.57;;;9.20;99.90;;;;;;4814527;29;20125;-67
2023/12/30 06:15:09;;;;;;;0.95;0.60;;;9.20;99.90;;;;;;4816666;29;20122;-67
2023/12/30 06:17:35;;;;;;;1.48;0.85;;;9.10;99.90;;;;;;4812602;29;20098;-67
2023/12/30 06:20:01;;;;;;;6.72;0.82;;;9.10;99.90;;;;;;4812730;29;20027;-67
2023/12/30 06:22:26;;;;;;;1.95;0.60;;;9.10;99.90;;;;;;4813037;29;20054;-67
2023/12/30 06:24:52;;;;;;;1.88;0.43;;;9.10;99.90;;;;;;4813792;29;20026;-67
2023/12/30 06:27:20;;;;;;;1.33;0.70;;;9.10;99.90;;;;;;4819780;29;20030;-67
2023/12/30 06:29:47;;;;;;;0.65;0.40;;;9.10;99.90;;;;;;4814368;29;20034;-67
2023/12/30 06:32:13;;;;;;;3.80;0.65;;;9.20;99.90;;;;;;4801778;29;20100;-67
2023/12/30 06:34:38;;;;;;;6.85;1.38;;;9.20;99.90;;;;;;4815118;29;20043;-66
2023/12/30 06:37:04;;;;;;;0.95;0.38;;;9.20;99.90;;;;;;4817645;29;20108;-66
2023/12/30 06:39:30;;;;;;;3.25;0.60;;;9.20;99.90;;;;;;4817211;29;20022;-66
2023/12/30 06:41:59;;;;;;;1.40;0.85;;;9.10;99.90;;;;;;4817379;29;20033;-66
2023/12/30 06:44:25;;;;;;;1.17;0.43;;;9.10;99.90;;;;;;4819095;29;20022;-66
2023/12/30 06:46:52;;;;;;;1.70;0.65;;;9.20;99.90;;;;;;4803456;29;20046;-66
2023/12/30 06:49:18;;;;;;;1.65;0.95;;;9.10;99.90;;;;;;4800886;29;20046;-66
2023/12/30 06:51:44;;;;;;;0.75;0.50;;;9.10;99.90;;;;;;4802801;29;20387;-66
2023/12/30 06:54:10;;;;;;;1.67;0.73;;;9.20;99.90;;;;;;4802960;29;20038;-66
2023/12/30 06:56:36;;;;;;;1.20;0.68;;;9.20;99.90;;;;;;4818402;29;20041;-66
2023/12/30 06:59:01;;;;;;;7.22;1.20;;;9.20;99.90;;;;;;4815892;29;20573;-66
2023/12/30 07:01:27;;;;;;;1.42;0.65;;;9.10;99.90;;;;;;4805371;29;20038;-66
2023/12/30 07:03:53;;;;;;;1.23;0.60;;;9.10;99.90;;;;;;4817577;29;20087;-66
2023/12/30 07:06:19;;;;;;;2.08;0.50;;;9.10;99.90;;;;;;4817241;29;20061;-66
2023/12/30 07:08:45;;;;;;;2.08;0.57;;;9.10;99.90;;;;;;4818949;29;20034;-66
2023/12/30 07:11:11;;;;;;;2.95;0.77;;;9.10;99.90;;;;;;4802602;29;20384;-67
2023/12/30 07:13:37;;;;;;;1.58;0.93;;;9.10;99.90;;;;;;4819170;29;20038;-66
2023/12/30 07:16:03;;;;;;;5.25;0.40;;;9.20;99.90;;;;;;4818984;29;20034;-66
2023/12/30 07:18:29;;;;;;;0.60;0.40;;;9.10;99.90;;;;;;4815788;29;20068;-66
2023/12/30 07:20:54;;;;;;;4.03;0.88;;;9.10;99.90;;;;;;4817808;29;20027;-66
2023/12/30 07:23:20;;;;;;;0.80;0.52;;;9.20;99.90;;;;;;4819558;29;20122;-66
2023/12/30 07:25:47;;;;;;;5.22;1.13;;;9.20;99.90;;;;;;4824907;29;20106;-72
2023/12/30 07:28:13;;;;;;;3.05;1.10;;;9.20;99.90;;;;;;4823852;29;20029;-68
2023/12/30 07:30:39;;;;;;;2.67;1.08;;;9.20;99.90;;;;;;4818265;29;20026;-66
2023/12/30 07:33:05;;;;;;;1.15;0.50;;;9.30;99.90;;;;;;4819314;29;20058;-66
2023/12/30 07:35:30;;;;;;;1.48;0.80;;;9.30;99.90;;;;;;4820678;29;20052;-66
2023/12/30 07:37:56;;;;;;;1.98;0.90;;;9.30;99.90;;;;;;4823325;29;20121;-66
2023/12/30 07:40:23;;;;;;;12.25;1.45;;;9.20;99.90;;;;;;4824158;29;20042;-65
2023/12/30 07:42:49;;;;;;;2.20;1.02;;;9.20;99.90;;;;;;4817307;29;20053;-65
2023/12/30 07:45:15;;;;;;;6.25;1.10;;;9.20;99.90;;;;;;4824165;29;20444;-65
2023/12/30 07:47:40;;;;;;;2.85;1.08;;;9.30;99.90;;;;;;4823843;29;20050;-65
2023/12/30 07:50:07;;;;;;;1.42;1.00;;;9.20;99.90;;;;;;4818431;29;20054;-65
2023/12/30 07:52:33;;;;;;;1.15;0.77;;;9.20;99.90;;;;;;4814596;29;20031;-65
2023/12/30 07:54:58;;;;;;;1.25;0.80;;;9.20;99.90;;;;;;4811885;29;20487;-66
2023/12/30 07:57:24;;;;;;;5.72;0.70;;;9.20;99.90;;;;;;4816221;29;20039;-65
2023/12/30 07:59:50;;;;;;;1.55;1.15;;;9.20;99.90;;;;;;4823876;29;20034;-66
2023/12/30 08:02:16;;;;;;;3.03;1.00;;;9.20;99.90;;;;;;4794191;29;20046;-66
2023/12/30 08:04:45;;;;;;;2.53;0.68;;;9.20;99.90;;;;;;4814796;29;20042;-66
2023/12/30 08:07:11;;;;;;;1.17;0.63;;;9.30;99.90;;;;;;4824415;29;20034;-66
2023/12/30 08:09:37;;;;;;;1.42;0.57;;;9.30;99.90;;;;;;4805509;29;20043;-66
2023/12/30 08:12:04;;;;;;;0.55;0.40;;;9.30;99.90;;;;;;4818739;29;20105;-66
2023/12/30 08:14:30;;;;;;;1.67;0.65;;;9.30;99.90;;;;;;4809512;29;20411;-67
2023/12/30 08:16:58;;;;;;;0.75;0.40;;;9.30;99.90;;;;;;4809833;29;20030;-66
2023/12/30 08:19:24;;;;;;;0.73;0.73;;;9.30;99.90;;;;;;4807195;29;20069;-66
2023/12/30 08:21:50;;;;;;;4.85;0.68;;;9.30;99.90;;;;;;4820657;29;20058;-66
2023/12/30 08:24:19;;;;;;;0.85;0.50;;;9.30;99.90;;;;;;4817312;29;20081;-66
2023/12/30 08:26:44;;;;;;;1.25;0.95;;;9.30;99.90;;;;;;4806623;29;20077;-66
2023/12/30 08:29:10;;;;;;;7.35;0.80;;;9.30;99.90;;;;;;4819487;29;20038;-65
2023/12/30 08:31:36;;;;;;;8.90;3.95;;;9.40;99.90;;;;;;4816951;29;20042;-65
2023/12/30 08:34:02;;;;;;;6.47;1.40;;;9.40;99.90;;;;;;4809473;29;20518;-65
2023/12/30 08:36:28;;;;;;;1.33;0.57;;;9.50;99.90;;;;;;4813243;29;20042;-65
2023/12/30 08:38:54;;;;;;;0.93;0.47;;;9.50;99.90;;;;;;4820178;29;20149;-66
2023/12/30 08:41:27;;;;;;;7.07;0.75;;;9.50;99.90;;;;;;4811990;29;20042;-65
2023/12/30 08:43:53;;;;;;;0.95;0.70;;;9.60;99.90;;;;;;4818415;29;20062;-65
2023/12/30 08:46:19;;;;;;;2.75;0.82;;;9.70;99.90;;;;;;4818948;29;20524;-66
2023/12/30 08:48:45;;;;;;;2.38;0.82;;;9.70;99.90;;;;;;4821767;29;20046;-66
2023/12/30 08:51:14;;;;;;;2.00;0.93;;;9.70;99.90;;;;;;4825854;29;20247;-66
2023/12/30 08:53:39;;;;;;;0.63;0.40;;;9.80;99.90;;;;;;4807966;29;20503;-66
2023/12/30 08:56:07;;;;;;;3.85;0.73;;;9.90;99.90;;;;;;4823198;29;20099;-65
2023/12/30 08:58:33;;;;;;;1.35;0.43;;;10.00;99.90;;;;;;4801610;29;20694;-65
2023/12/30 09:00:58;;;;;;;2.78;0.35;;;10.00;99.90;;;;;;4807285;29;20131;-65
2023/12/30 09:03:24;;;;;;;3.15;0.63;;;10.00;99.90;;;;;;4806226;29;20046;-69
2023/12/30 09:05:50;;;;;;;5.93;2.97;;;10.00;99.90;;;;;;4807545;29;20034;-69
2023/12/30 09:08:16;;;;;;;6.63;0.88;;;10.00;99.90;;;;;;4805294;29;20163;-69
2023/12/30 09:10:42;;;;;;;2.75;0.77;;;10.10;99.90;;;;;;4823049;29;20075;-69
2023/12/30 09:13:08;;;;;;;1.30;0.60;;;10.10;99.90;;;;;;4816871;29;20042;-69
2023/12/30 09:15:34;;;;;;;3.35;0.80;;;10.00;99.90;;;;;;4804397;29;20321;-69
2023/12/30 09:18:00;;;;;;;1.98;0.70;;;10.00;99.90;;;;;;4799395;29;20117;-69
2023/12/30 09:20:26;;;;;;;0.50;0.40;;;10.10;99.90;;;;;;4814355;29;20082;-69
2023/12/30 09:22:52;;;;;;;1.33;0.98;;;10.10;99.90;;;;;;4812721;29;20121;-69
2023/12/30 09:25:18;;;;;;;2.08;0.75;;;10.10;99.90;;;;;;4803198;29;20034;-69
2023/12/30 09:27:45;;;;;;;1.63;0.60;;;10.10;99.90;;;;;;4805480;29;20404;-69
2023/12/30 09:30:12;;;;;;;2.22;0.47;;;10.10;99.90;;;;;;4822647;29;20035;-70
2023/12/30 09:32:37;;;;;;;0.90;0.55;;;10.10;99.90;;;;;;4821717;29;20126;-69
2023/12/30 09:35:05;;;;;;;3.97;0.63;;;10.10;99.90;;;;;;4822695;29;20105;-69
2023/12/30 09:37:31;;;;;;;0.47;0.43;;;10.10;99.90;;;;;;4805626;29;20030;-70
2023/12/30 09:39:57;;;;;;;1.73;0.68;;;10.10;99.90;;;;;;4803902;29;20049;-69
2023/12/30 09:42:23;;;;;;;4.32;0.63;;;10.20;99.90;;;;;;4806470;29;20055;-69
2023/12/30 09:44:50;;;;;;;2.45;0.32;;;10.20;99.90;;;;;;4805916;29;20035;-70
2023/12/30 09:47:17;;;;;;;3.35;0.65;;;10.20;99.90;;;;;;4806620;29;20062;-69
2023/12/30 09:49:44;;;;;;;3.42;0.50;;;10.30;99.90;;;;;;4835683;24;20081;-70
2023/12/30 09:52:10;;;;;;;11.20;0.98;;;10.30;99.90;;;;;;4824356;29;20095;-70
2023/12/30 09:54:38;;;;;;;1.05;0.40;;;10.30;99.90;;;;;;4822032;29;20068;-70
2023/12/30 09:57:05;;;;;;;3.60;0.75;;;10.30;99.90;;;;;;4821276;29;20050;-70
2023/12/30 09:59:35;;;;;;;4.65;0.65;;;10.30;99.90;;;;;;4819807;29;20054;-70
2023/12/30 10:02:03;;;;;;;1.83;0.50;;;10.20;99.90;;;;;;4806004;29;20123;-70
2023/12/30 10:04:29;;;;;;;2.30;0.95;;;10.30;99.90;;;;;;4805225;29;20046;-70
2023/12/30 10:06:55;;;;;;;1.08;0.60;;;10.30;99.90;;;;;;4821034;29;20038;-71
2023/12/30 10:09:22;;;;;;;0.47;0.30;;;10.40;99.90;;;;;;4806559;29;20445;-70
2023/12/30 10:11:49;;;;;;;1.65;0.77;;;10.40;99.90;;;;;;4809526;29;20022;-70
2023/12/30 10:14:15;;;;;;;0.47;0.40;;;10.50;99.90;;;;;;4810047;29;20054;-70
2023/12/30 10:16:41;;;;;;;0.38;0.30;;;10.40;99.90;;;;;;4825273;29;20117;-70
2023/12/30 10:19:13;;;;;;;0.80;0.60;;;10.50;99.90;;;;;;4825646;29;20121;-70
2023/12/30 10:21:38;;;;;;;3.13;0.57;;;10.50;99.90;;;;;;4826296;29;20057;-70
2023/12/30 10:24:05;;;;;;;2.20;0.82;;;10.50;99.90;;;;;;4825406;29;20147;-65
2023/12/30 10:26:37;;;;;;;0.90;0.47;;;10.40;99.90;;;;;;4823911;29;20030;-65
2023/12/30 10:29:05;;;;;;;7.53;0.65;;;10.60;99.90;;;;;;4823839;29;20109;-66
2023/12/30 10:31:31;;;;;;;9.05;0.68;;;10.70;99.90;;;;;;4824689;29;20496;-63
2023/12/30 10:33:57;;;;;;;4.68;1.20;;;10.70;99.90;;;;;;4808759;29;20087;-65
2023/12/30 10:36:26;;;;;;;0.82;0.47;;;10.80;99.90;;;;;;4824369;29;20034;-64
2023/12/30 10:38:54;;;;;;;1.60;0.68;;;10.80;99.90;;;;;;4802016;29;20027;-63
2023/12/30 10:41:20;;;;;;;0.63;0.50;;;10.80;99.90;;;;;;4808971;29;20030;-65
2023/12/30 10:43:45;;;;;;;2.55;0.50;;;10.80;99.90;;;;;;4808995;29;21776;-65
2023/12/30 10:46:13;;;;;;;0.82;0.60;;;10.80;99.90;;;;;;4825138;29;20534;-64
2023/12/30 10:49:03;;;;;;;1.02;0.40;;;10.90;99.90;;;;;;4808064;29;20500;-64
2023/12/30 10:51:32;;;;;;;4.50;0.60;;;10.90;99.90;;;;;;4814215;29;20045;-67
2023/12/30 10:54:11;;;;;;;3.47;1.10;;;11.00;99.90;;;;;;4824431;29;20037;-66
2023/12/30 10:56:47;;;;;;;5.53;0.77;;;11.00;99.90;;;;;;4821368;29;20121;-65
2023/12/30 10:59:14;;;;;;;0.90;0.32;;;11.00;99.90;;;;;;4822728;29;20038;-65
2023/12/30 11:01:43;;;;;;;7.38;0.60;;;11.10;99.90;;;;;;4808886;29;20539;-65
2023/12/30 11:04:14;;;;;;;9.48;1.38;;;11.20;99.90;;;;;;4822598;29;20038;-65
2023/12/30 11:07:10;;;;;;;1.63;0.43;;;11.20;99.90;;;;;;4823642;29;20475;-68
2023/12/30 11:09:36;;;;;;;8.30;0.77;;;11.20;99.90;;;;;;4819831;29;20107;-71
2023/12/30 11:12:04;;;;;;;2.03;0.73;;;11.20;99.90;;;;;;4823897;29;20437;-70
2023/12/30 11:14:31;;;;;;;20.45;1.08;;;11.30;99.90;;;;;;4808643;29;20032;-71
2023/12/30 11:16:57;;;;;;;6.93;0.93;;;11.20;99.90;;;;;;4823969;29;20030;-66
2023/12/30 11:19:29;;;;;;;1.45;0.50;;;11.20;99.90;;;;;;4822832;29;20034;-66
2023/12/30 11:21:58;;;;;;;0.93;0.50;;;11.30;99.90;;;;;;4816262;29;20034;-65
2023/12/30 11:24:26;;;;;;;7.22;0.68;;;11.40;99.90;;;;;;4825522;29;20648;-66
2023/12/30 11:26:54;;;;;;;5.57;1.95;;;11.60;99.90;;;;;;4823138;29;20107;-65
2023/12/30 11:29:26;;;;;;;2.00;0.70;;;11.60;99.90;;;;;;4823258;29;20064;-64
2023/12/30 11:31:57;;;;;;;0.70;0.45;;;11.60;99.90;;;;;;4815047;29;20030;-65
2023/12/30 11:34:26;;;;;;;4.50;1.05;;;11.60;99.90;;;;;;4809156;29;20060;-66
2023/12/30 11:36:54;;;;;;;1.48;0.40;;;11.60;99.90;;;;;;4807775;29;20053;-67
2023/12/30 11:39:27;;;;;;;0.85;0.52;;;11.60;99.90;;;;;;4807031;29;20058;-68
2023/12/30 11:41:53;;;;;;;5.97;0.88;;;11.60;99.90;;;;;;4819462;29;20059;-67
2023/12/30 11:44:19;;;;;;;1.83;0.32;;;11.70;99.90;;;;;;4807382;29;20175;-65
2023/12/30 11:46:48;;;;;;;5.05;1.20;;;11.70;99.90;;;;;;4806818;29;20433;-66
2023/12/30 11:49:25;;;;;;;6.43;1.17;;;11.80;99.90;;;;;;4822861;29;20045;-66
2023/12/30 11:52:00;;;;;;;2.05;0.40;;;11.80;99.90;;;;;;4822957;29;20057;-68
2023/12/30 11:54:28;;;;;;;8.95;1.42;;;11.80;99.90;;;;;;4822575;29;20445;-65
2023/12/30 11:56:54;;;;;;;2.92;0.50;;;11.90;99.90;;;;;;4823488;29;20368;-66
2023/12/30 11:59:20;;;;;;;20.30;0.60;;;11.90;99.90;;;;;;4807345;29;20051;-66
2023/12/30 12:01:46;;;;;;;2.92;0.95;;;11.90;99.90;;;;;;4806611;29;20034;-66
2023/12/30 12:04:13;;;;;;;0.95;0.55;;;12.00;99.90;;;;;;4806188;29;20034;-67
2023/12/30 12:06:40;;;;;;;6.03;0.50;;;11.90;99.90;;;;;;4821334;29;20034;-65
2023/12/30 12:09:07;;;;;;;3.53;0.60;;;11.80;99.90;;;;;;4822994;29;20495;-65
2023/12/30 12:11:33;;;;;;;2.20;0.82;;;11.80;99.90;;;;;;4822573;29;20125;-65
2023/12/30 12:13:59;;;;;;;1.50;0.55;;;11.80;99.90;;;;;;4807323;29;20040;-65
2023/12/30 12:16:27;;;;;;;4.00;1.60;;;11.90;99.90;;;;;;4821166;29;20050;-66
2023/12/30 12:18:54;;;;;;;14.90;0.93;;;11.90;99.90;;;;;;4805517;29;20026;-66
2023/12/30 12:21:20;;;;;;;2.00;1.10;;;12.00;99.90;;;;;;4824881;29;20040;-66
2023/12/30 12:23:47;;;;;;;2.00;0.20;;;11.90;99.90;;;;;;4820758;29;20037;-65
2023/12/30 12:26:15;;;;;;;1.73;0.65;;;12.00;99.90;;;;;;4822702;29;20034;-66
2023/12/30 12:28:41;;;;;;;2.47;0.30;;;12.00;99.90;;;;;;4822620;29;20041;-66
2023/12/30 12:31:07;;;;;;;0.40;0.30;;;12.00;99.90;;;;;;4822143;29;20038;-66
2023/12/30 12:33:34;;;;;;;5.07;1.10;;;12.00;99.90;;;;;;4805495;29;20090;-66
2023/12/30 12:36:01;;;;;;;1.13;0.47;;;12.00;99.90;;;;;;4805795;29;20054;-66
2023/12/30 12:38:28;;;;;;;2.38;0.50;;;12.10;99.90;;;;;;4806739;29;20041;-66
2023/12/30 12:40:54;;;;;;;4.63;0.73;;;12.20;99.90;;;;;;4805804;29;20131;-65
2023/12/30 12:43:19;;;;;;;8.85;1.42;;;12.10;99.90;;;;;;4821929;29;20038;-65
2023/12/30 12:45:45;;;;;;;13.48;0.65;;;12.10;99.90;;;;;;4821011;29;20498;-67
2023/12/30 12:48:11;;;;;;;3.00;1.35;;;12.20;99.90;;;;;;4822138;29;20121;-65
2023/12/30 12:50:37;;;;;;;0.85;0.45;;;12.20;99.90;;;;;;4822528;29;20079;-66